Time;durP1;ratioP1;P1;durP2;ratioP2;P2;SDS_P1;SDS_P2;PMS_P1;PMS_P2;Temp;Humidity;BMP_temperature;BMP_pressure;BME280_temperature;BME280_humidity;BME280_pressure;Samples;Min_cycle;Max_cycle;Signal;HPM_P1;HPM_P2
2023/02/23 00:02:06;;;;;;;59.25;39.00;;;;;;;9.21;100.00;101148.09;5114452;27;20048;-67
2023/02/23 00:04:34;;;;;;;62.53;40.55;;;;;;;9.18;100.00;101140.44;5115117;27;20079;-67
2023/02/23 00:07:02;;;;;;;63.47;41.08;;;;;;;9.17;100.00;101144.25;5112054;27;20074;-66
2023/02/23 00:09:34;;;;;;;65.40;42.08;;;;;;;9.15;100.00;101146.41;5114117;27;20118;-66
2023/02/23 00:12:06;;;;;;;60.22;41.53;;;;;;;9.15;100.00;101151.84;5114630;27;20057;-66
2023/02/23 00:14:36;;;;;;;66.57;43.58;;;;;;;9.16;100.00;101153.47;5099827;28;20100;-66
2023/02/23 00:17:12;;;;;;;61.97;42.05;;;;;;;9.15;100.00;101146.41;5112999;27;20044;-66
2023/02/23 00:19:43;;;;;;;62.05;43.00;;;;;;;9.13;100.00;101149.34;5107195;28;20348;-67
2023/02/23 00:22:11;;;;;;;66.68;45.13;;;;;;;9.11;100.00;101145.25;5084002;27;20138;-67
2023/02/23 00:24:41;;;;;;;66.15;44.08;;;;;;;9.10;100.00;101154.47;5111161;27;20051;-66
2023/02/23 00:27:09;;;;;;;67.53;44.15;;;;;;;9.09;100.00;101152.81;5104962;28;20067;-66
2023/02/23 00:29:39;;;;;;;64.40;43.22;;;;;;;9.09;100.00;101152.81;5093574;28;20050;-66
2023/02/23 00:32:07;;;;;;;65.47;44.08;;;;;;;9.11;100.00;101153.41;5093768;27;20079;-66
2023/02/23 00:34:35;;;;;;;64.18;43.53;;;;;;;9.10;100.00;101151.75;5114047;28;20075;-66
2023/02/23 00:37:04;;;;;;;67.18;44.42;;;;;;;9.11;100.00;101150.69;5103362;27;20036;-67
2023/02/23 00:39:31;;;;;;;64.60;43.60;;;;;;;9.09;100.00;101150.09;5109774;27;20039;-66
2023/02/23 00:42:01;;;;;;;64.38;43.53;;;;;;;9.09;100.00;101152.81;5095817;28;20096;-66
2023/02/23 00:44:32;;;;;;;70.10;46.15;;;;;;;9.06;100.00;101150.59;5114117;28;20051;-65
2023/02/23 00:47:00;;;;;;;63.55;43.67;;;;;;;9.04;100.00;101144.59;5110211;28;20050;-65
2023/02/23 00:49:28;;;;;;;64.13;44.97;;;;;;;9.02;100.00;101147.59;5103264;28;20036;-66
2023/02/23 00:51:56;;;;;;;63.28;44.30;;;;;;;9.02;100.00;101142.16;5113955;27;20044;-66
2023/02/23 00:54:24;;;;;;;61.92;43.35;;;;;;;9.01;100.00;101143.19;5112313;28;20536;-66
2023/02/23 00:56:52;;;;;;;62.33;42.53;;;;;;;9.01;100.00;101143.19;5095891;28;20375;-66
2023/02/23 00:59:19;;;;;;;65.10;45.40;;;;;;;9.00;100.00;101143.47;5098424;28;20058;-66
2023/02/23 01:01:47;;;;;;;67.03;45.28;;;;;;;8.95;100.00;101150.47;5113628;28;20047;-67
2023/02/23 01:04:19;;;;;;;66.65;44.58;;;;;;;8.94;100.00;101143.38;5108435;27;20047;-66
2023/02/23 01:06:47;;;;;;;60.85;44.10;;;;;;;8.91;100.00;101146.59;5104753;28;20400;-66
2023/02/23 01:09:26;;;;;;;62.05;43.30;;;;;;;8.90;100.00;101144.97;5076137;28;20407;-66
2023/02/23 01:11:55;;;;;;;61.72;43.83;;;;;;;8.89;100.00;101148.72;5085666;28;20055;-66
2023/02/23 01:14:23;;;;;;;60.75;41.90;;;;;;;8.88;100.00;101143.56;5116384;27;20043;-66
2023/02/23 01:16:51;;;;;;;62.20;42.50;;;;;;;8.89;100.00;101148.72;5094269;28;20127;-66
2023/02/23 01:19:19;;;;;;;59.60;43.20;;;;;;;8.91;100.00;101145.78;5060036;28;20448;-66
2023/02/23 01:21:48;;;;;;;59.33;43.53;;;;;;;8.91;100.00;101146.59;5096153;27;20050;-67
2023/02/23 01:24:17;;;;;;;63.13;44.17;;;;;;;8.90;100.00;101153.13;5112797;28;20050;-66
2023/02/23 01:26:45;;;;;;;61.08;42.72;;;;;;;8.91;100.00;101153.94;5107132;28;20043;-66
2023/02/23 01:29:15;;;;;;;61.38;41.53;;;;;;;8.89;100.00;101148.72;5112036;28;20093;-67
2023/02/23 01:31:45;;;;;;;59.25;42.08;;;;;;;8.89;100.00;101143.28;5115127;28;20108;-66
2023/02/23 01:34:20;;;;;;;60.13;42.35;;;;;;;8.87;100.00;101150.06;5104729;27;20116;-66
2023/02/23 01:36:48;;;;;;;59.92;43.47;;;;;;;8.86;100.00;101154.66;5112697;28;20074;-66
2023/02/23 01:39:18;;;;;;;59.65;42.92;;;;;;;8.81;100.00;101151.88;5097946;28;20043;-66
2023/02/23 01:41:46;;;;;;;59.78;43.08;;;;;;;8.79;100.00;101156.72;5112768;28;20046;-66
2023/02/23 01:44:14;;;;;;;62.60;42.30;;;;;;;8.80;100.00;101154.84;5098469;27;20091;-67
2023/02/23 01:46:44;;;;;;;60.67;42.58;;;;;;;8.80;100.00;101154.84;5116891;27;20044;-66
2023/02/23 01:49:21;;;;;;;64.75;45.60;;;;;;;8.80;100.00;101155.66;5115320;27;20039;-65
2023/02/23 01:51:54;;;;;;;62.53;43.53;;;;;;;8.78;100.00;101155.09;5117782;27;20506;-65
2023/02/23 01:54:31;;;;;;;59.97;41.70;;;;;;;8.76;100.00;101159.97;5116319;27;20047;-65
2023/02/23 01:57:01;;;;;;;64.70;44.30;;;;;;;8.74;100.00;101156.66;5116145;27;20078;-66
2023/02/23 01:59:37;;;;;;;63.17;44.35;;;;;;;8.72;100.00;101164.22;5082917;28;20048;-66
2023/02/23 02:02:04;;;;;;;66.82;45.97;;;;;;;8.71;100.00;101157.16;5110694;28;20122;-66
2023/02/23 02:04:42;;;;;;;63.92;43.33;;;;;;;8.67;100.00;101161.44;5082217;28;20043;-66
2023/02/23 02:07:16;;;;;;;60.58;42.55;;;;;;;8.67;100.00;101161.44;5114559;27;20043;-66
2023/02/23 02:12:35;;;;;;;62.08;42.08;;;;;;;8.69;100.00;101162.00;5116037;28;20056;-66
2023/02/23 02:15:04;;;;;;;57.33;41.40;;;;;;;8.69;100.00;101164.72;5104652;27;20039;-67
2023/02/23 02:17:52;;;;;;;57.55;41.60;;;;;;;8.70;100.00;101161.75;5120205;27;20044;-65
2023/02/23 02:20:42;;;;;;;59.30;41.92;;;;;;;8.73;100.00;101165.84;5117223;27;20032;-67
2023/02/23 02:23:26;;;;;;;60.53;41.60;;;;;;;8.73;100.00;101164.00;5111789;27;20044;-67
2023/02/23 02:26:20;;;;;;;64.22;42.55;;;;;;;8.75;100.00;101163.72;5103813;27;20067;-66
2023/02/23 02:29:25;;;;;;;59.78;41.85;;;;;;;8.75;100.00;101163.72;5108962;27;20111;-67
2023/02/23 02:32:18;;;;;;;59.40;42.28;;;;;;;8.75;100.00;101163.72;5096804;28;20050;-66
2023/02/23 02:35:38;;;;;;;60.80;42.05;;;;;;;8.75;100.00;101155.56;5092596;28;20032;-67
2023/02/23 02:38:24;;;;;;;59.80;43.45;;;;;;;8.73;100.00;101155.00;5078365;27;20138;-66
2023/02/23 02:41:11;;;;;;;63.10;43.28;;;;;;;8.72;100.00;101158.78;5108431;28;20048;-67
2023/02/23 02:43:49;;;;;;;59.90;42.50;;;;;;;8.72;100.00;101158.78;5104467;27;20051;-65
2023/02/23 02:46:30;;;;;;;61.70;41.97;;;;;;;8.72;100.00;101156.91;5108391;28;20040;-65
2023/02/23 02:49:18;;;;;;;60.28;42.70;;;;;;;8.72;100.00;101161.50;5110420;27;20131;-67
2023/02/23 02:51:51;;;;;;;62.67;43.45;;;;;;;8.69;100.00;101156.59;5115299;28;20031;-66
2023/02/23 02:54:22;;;;;;;59.92;41.75;;;;;;;8.67;100.00;101158.72;5104428;28;20384;-66
2023/02/23 02:56:53;;;;;;;61.15;41.47;;;;;;;8.63;100.00;101160.28;5106060;27;20039;-66
2023/02/23 04:18:22;;;;;;;56.50;40.45;;;;;;;8.59;100.00;101186.28;5098792;27;20070;-66
2023/02/23 04:20:51;;;;;;;59.65;42.88;;;;;;;8.56;100.00;101192.19;5108576;27;20039;-66
2023/02/23 04:23:18;;;;;;;58.15;42.30;;;;;;;8.53;100.00;101198.94;5111162;27;20096;-66
2023/02/23 04:25:46;;;;;;;59.38;42.80;;;;;;;8.49;100.00;101198.63;5097883;27;20097;-67
2023/02/23 04:28:15;;;;;;;58.78;43.17;;;;;;;8.45;100.00;101205.59;5114977;28;20044;-66
2023/02/23 04:30:43;;;;;;;56.90;42.25;;;;;;;8.45;100.00;101202.88;5113517;27;20048;-66
2023/02/23 04:33:10;;;;;;;58.30;42.40;;;;;;;8.45;100.00;101200.19;5100797;28;20097;-66
2023/02/23 04:35:38;;;;;;;57.38;42.22;;;;;;;8.42;100.00;101194.41;5095783;27;20167;-66
2023/02/23 04:38:06;;;;;;;55.25;41.03;;;;;;;8.42;100.00;101197.97;5113207;28;20044;-66
2023/02/23 04:40:34;;;;;;;60.75;42.67;;;;;;;8.42;100.00;101197.09;5113829;27;20043;-66
2023/02/23 04:43:01;;;;;;;58.72;41.85;;;;;;;8.41;100.00;101196.28;5111171;28;20050;-66
2023/02/23 04:45:29;;;;;;;58.20;41.42;;;;;;;8.42;100.00;101202.53;5113859;28;20062;-66
2023/02/23 04:47:57;;;;;;;56.38;39.92;;;;;;;8.43;100.00;101204.22;5094738;28;20048;-66
2023/02/23 04:50:24;;;;;;;58.05;41.28;;;;;;;8.43;100.00;101194.16;5112588;27;20522;-66
2023/02/23 04:52:52;;;;;;;57.70;41.13;;;;;;;8.44;100.00;101203.97;5098203;28;20051;-66
2023/02/23 04:55:23;;;;;;;56.92;40.65;;;;;;;8.43;100.00;101210.47;5113759;28;20051;-66
2023/02/23 04:57:52;;;;;;;56.97;41.35;;;;;;;8.37;100.00;101205.97;5076865;28;20048;-66
2023/02/23 05:00:20;;;;;;;55.88;40.60;;;;;;;8.36;100.00;101215.19;5089373;28;20113;-66
2023/02/23 05:02:48;;;;;;;55.00;39.38;;;;;;;8.34;100.00;101214.59;5088420;28;20051;-66
2023/02/23 05:05:17;;;;;;;54.90;40.47;;;;;;;8.33;100.00;101212.97;5102785;28;20483;-66
2023/02/23 05:07:46;;;;;;;54.30;40.13;;;;;;;8.33;100.00;101213.78;5112320;27;20048;-67
2023/02/23 05:10:14;;;;;;;54.50;41.38;;;;;;;8.35;100.00;101213.53;5123477;27;20050;-67
2023/02/23 05:12:41;;;;;;;53.47;38.60;;;;;;;8.33;100.00;101211.06;5118627;27;20050;-66
2023/02/23 05:15:09;;;;;;;54.63;38.83;;;;;;;8.33;100.00;101213.78;5110843;27;20057;-66
2023/02/23 05:17:40;;;;;;;51.63;38.53;;;;;;;8.31;100.00;101217.81;5116018;27;20085;-65
2023/02/23 05:20:10;;;;;;;55.50;40.40;;;;;;;8.30;100.00;101216.16;5117530;28;20079;-66
2023/02/23 05:22:37;;;;;;;52.83;38.53;;;;;;;8.27;100.00;101216.63;5120724;28;20047;-65
2023/02/23 05:25:06;;;;;;;52.58;38.97;;;;;;;8.27;100.00;101213.91;5105625;28;20586;-66
2023/02/23 05:27:34;;;;;;;52.45;38.70;;;;;;;8.32;100.00;101214.00;5115037;28;20105;-66
2023/02/23 05:30:02;;;;;;;48.70;36.88;;;;;;;8.33;100.00;101223.81;5113475;28;20039;-65
2023/02/23 05:32:30;;;;;;;53.33;38.15;;;;;;;8.33;100.00;101221.91;5099765;28;20131;-66
2023/02/23 05:34:58;;;;;;;50.80;37.05;;;;;;;8.35;100.00;101221.69;5104808;28;20043;-66
2023/02/23 05:37:25;;;;;;;48.88;37.30;;;;;;;8.36;100.00;101219.78;5119995;28;20435;-67
2023/02/23 05:39:54;;;;;;;51.30;37.20;;;;;;;8.37;100.00;101227.72;5121040;28;20044;-65
2023/02/23 05:42:21;;;;;;;51.53;38.42;;;;;;;8.38;100.00;101225.81;5117089;28;20054;-66
2023/02/23 05:44:50;;;;;;;52.00;37.45;;;;;;;8.38;100.00;101220.38;5111673;28;20051;-66
2023/02/23 05:47:17;;;;;;;49.92;37.10;;;;;;;8.38;100.00;101218.47;5099709;28;20044;-67
2023/02/23 05:49:45;;;;;;;49.60;37.55;;;;;;;8.39;100.00;101220.13;5098609;28;20127;-66
2023/02/23 05:52:13;;;;;;;55.22;37.92;;;;;;;8.39;100.00;101225.53;5103965;28;20052;-66
2023/02/23 05:54:41;;;;;;;50.17;38.45;;;;;;;8.38;100.00;101225.81;5092165;28;20056;-65
2023/02/23 05:57:09;;;;;;;52.72;39.50;;;;;;;8.37;100.00;101233.13;5117486;28;20078;-65
2023/02/23 05:59:37;;;;;;;54.45;38.88;;;;;;;8.38;100.00;101220.38;5113199;28;20047;-65
2023/02/23 06:02:04;;;;;;;52.67;38.88;;;;;;;8.37;100.00;101225.00;5112968;28;20039;-65
2023/02/23 06:04:32;;;;;;;55.10;41.53;;;;;;;8.37;100.00;101232.28;5111421;28;20488;-66
2023/02/23 06:07:00;;;;;;;50.38;37.75;;;;;;;8.37;100.00;101232.28;5111831;28;20035;-65
2023/02/23 06:09:28;;;;;;;48.13;37.88;;;;;;;8.35;100.00;101234.44;5112063;28;20054;-64
2023/02/23 06:11:58;;;;;;;48.40;38.00;;;;;;;8.32;100.00;101235.72;5109802;28;20048;-67
2023/02/23 06:14:26;;;;;;;54.03;38.42;;;;;;;8.29;100.00;101242.47;5099276;28;20059;-65
2023/02/23 06:16:53;;;;;;;53.80;40.38;;;;;;;8.27;100.00;101239.19;5102124;28;20051;-66
2023/02/23 06:19:21;;;;;;;57.05;42.05;;;;;;;8.22;100.00;101239.06;5113325;28;20069;-65
2023/02/23 06:21:49;;;;;;;53.25;41.63;;;;;;;8.20;100.00;101243.09;5091004;28;20059;-67
2023/02/23 06:24:18;;;;;;;52.67;39.45;;;;;;;8.15;100.00;101249.25;5108281;28;20071;-66
2023/02/23 06:26:45;;;;;;;53.88;41.15;;;;;;;8.16;100.00;101248.19;5112594;28;20088;-65
2023/02/23 06:29:15;;;;;;;54.38;39.45;;;;;;;8.18;100.00;101258.78;5113022;28;20428;-66
2023/02/23 06:31:43;;;;;;;54.20;40.53;;;;;;;8.21;100.00;101250.19;5112269;28;20491;-66
2023/02/23 06:34:11;;;;;;;53.65;39.47;;;;;;;8.22;100.00;101257.25;5114387;27;20055;-66
2023/02/23 06:36:38;;;;;;;52.03;38.78;;;;;;;8.23;100.00;101264.34;5111607;27;20047;-66
2023/02/23 06:39:06;;;;;;;51.38;39.58;;;;;;;8.24;100.00;101269.53;5113430;27;20068;-67
2023/02/23 06:41:35;;;;;;;51.70;38.60;;;;;;;8.24;100.00;101269.53;5096323;28;20036;-66
2023/02/23 06:44:03;;;;;;;52.15;39.15;;;;;;;8.24;100.00;101271.41;5113112;27;20051;-66
2023/02/23 06:46:32;;;;;;;52.13;38.65;;;;;;;8.25;100.00;101265.75;5099803;28;20453;-66
2023/02/23 06:49:00;;;;;;;52.03;39.53;;;;;;;8.28;100.00;101272.59;5117893;27;20054;-65
2023/02/23 06:51:27;;;;;;;53.13;39.63;;;;;;;8.27;100.00;101273.63;4759115;27;9999775;-65
2023/02/23 06:53:56;;;;;;;51.25;39.45;;;;;;;8.27;100.00;101279.06;5086971;28;20055;-66
2023/02/23 06:56:25;;;;;;;53.20;39.45;;;;;;;8.26;100.00;101277.44;5115807;27;20063;-66
2023/02/23 06:58:54;;;;;;;53.03;38.38;;;;;;;8.24;100.00;101283.09;5112278;28;20060;-66
2023/02/23 07:01:21;;;;;;;50.25;37.55;;;;;;;8.24;100.00;101285.00;5107788;27;20063;-67
2023/02/23 07:03:49;;;;;;;50.45;37.20;;;;;;;8.25;100.00;101283.91;5088452;27;20043;-66
2023/02/23 07:06:23;;;;;;;54.05;39.22;;;;;;;8.23;100.00;101286.88;5106736;27;20062;-67
2023/02/23 07:08:51;;;;;;;52.33;38.22;;;;;;;8.22;100.00;101289.84;5116455;28;20059;-67
2023/02/23 07:11:18;;;;;;;50.97;38.15;;;;;;;8.22;100.00;101289.84;5109983;27;20047;-66
2023/02/23 07:13:47;;;;;;;49.92;37.75;;;;;;;8.20;100.00;101297.38;5113169;27;20074;-65
2023/02/23 07:16:15;;;;;;;51.65;37.42;;;;;;;8.19;100.00;101295.75;5120312;27;20139;-66
2023/02/23 07:18:42;;;;;;;49.78;38.05;;;;;;;8.19;100.00;101309.31;5120057;28;20051;-65
2023/02/23 07:21:10;;;;;;;52.13;38.15;;;;;;;8.19;100.00;101306.59;5078258;28;20044;-67
2023/02/23 07:23:38;;;;;;;50.20;37.97;;;;;;;8.17;100.00;101306.84;5118609;28;20047;-65
2023/02/23 07:26:05;;;;;;;51.55;39.03;;;;;;;8.17;100.00;101311.44;5125397;28;20054;-66
2023/02/23 07:28:33;;;;;;;50.00;38.50;;;;;;;8.15;100.00;101306.25;5123954;28;20040;-66
2023/02/23 07:31:01;;;;;;;51.28;37.70;;;;;;;8.15;100.00;101308.97;5113667;28;20052;-66
2023/02/23 07:33:28;;;;;;;49.83;36.67;;;;;;;8.18;100.00;101311.22;5102249;28;20048;-66
2023/02/23 07:35:56;;;;;;;50.88;38.90;;;;;;;8.17;100.00;101319.59;5092320;28;20052;-66
2023/02/23 07:38:24;;;;;;;51.25;39.08;;;;;;;8.10;100.00;101317.00;5092467;28;20052;-66
2023/02/23 07:40:52;;;;;;;51.38;39.33;;;;;;;8.07;100.00;101320.19;5094964;28;20130;-65
2023/02/23 07:43:21;;;;;;;53.28;38.30;;;;;;;8.05;100.00;101322.31;5110724;28;20054;-66
2023/02/23 07:45:50;;;;;;;50.15;38.53;;;;;;;8.05;100.00;101328.56;5102874;27;20147;-65
2023/02/23 07:48:19;;;;;;;57.00;40.85;;;;;;;8.08;100.00;101322.69;5109075;27;20416;-65
2023/02/23 07:50:47;;;;;;;50.92;38.30;;;;;;;8.12;100.00;101323.03;5116486;27;20140;-66
2023/02/23 07:53:15;;;;;;;52.53;39.33;;;;;;;8.17;100.00;101330.44;5113955;27;20086;-65
2023/02/23 07:55:42;;;;;;;53.38;39.38;;;;;;;8.14;100.00;101330.94;5112951;27;20032;-66
2023/02/23 07:58:12;;;;;;;49.55;37.05;;;;;;;8.13;100.00;101331.97;5115487;27;20119;-66
2023/02/23 08:00:39;;;;;;;53.08;39.00;;;;;;;8.16;100.00;101339.66;5115265;28;20738;-66
2023/02/23 08:03:07;;;;;;;48.13;36.30;;;;;;;8.20;100.00;101343.53;5106268;28;20055;-66
2023/02/23 08:05:35;;;;;;;49.10;36.03;;;;;;;8.21;100.00;101361.50;5122139;27;20043;-65
2023/02/23 08:08:03;;;;;;;52.25;37.42;;;;;;;8.21;100.00;101361.50;5099529;28;20131;-66
2023/02/23 08:10:31;;;;;;;49.05;36.75;;;;;;;8.23;100.00;101364.78;5114194;28;20047;-66
2023/02/23 08:12:59;;;;;;;52.47;37.45;;;;;;;8.23;100.00;101367.50;5096393;28;20036;-66
2023/02/23 08:15:27;;;;;;;49.05;35.92;;;;;;;8.23;100.00;101372.94;5105560;27;20052;-67
2023/02/23 08:17:54;;;;;;;51.65;39.45;;;;;;;8.21;100.00;101372.34;5125978;27;20077;-66
2023/02/23 08:20:22;;;;;;;49.47;39.13;;;;;;;8.18;100.00;101373.66;5111011;27;20054;-65
2023/02/23 08:22:54;;;;;;;53.20;41.40;;;;;;;8.14;100.00;101379.78;5118785;28;20047;-66
2023/02/23 08:25:22;;;;;;;54.33;40.88;;;;;;;8.07;100.00;101383.44;5094821;28;20052;-64
2023/02/23 08:27:53;;;;;;;54.45;40.00;;;;;;;8.06;100.00;101380.97;5094350;28;20131;-67
2023/02/23 08:30:23;;;;;;;54.15;41.25;;;;;;;8.05;100.00;101382.03;5095601;28;20055;-66
2023/02/23 08:32:51;;;;;;;55.85;39.40;;;;;;;8.02;100.00;101383.34;5093987;28;20044;-66
2023/02/23 08:35:19;;;;;;;52.22;38.15;;;;;;;8.03;100.00;101385.00;5093363;28;20496;-64
2023/02/23 08:37:46;;;;;;;53.20;36.67;;;;;;;8.10;100.00;101393.00;5077348;28;20046;-66
2023/02/23 08:40:14;;;;;;;52.15;38.00;;;;;;;8.13;100.00;101388.97;5104054;27;20092;-66
2023/02/23 08:42:43;;;;;;;49.58;36.70;;;;;;;8.18;100.00;101391.81;5111438;28;20040;-65
2023/02/23 08:45:11;;;;;;;50.88;37.60;;;;;;;8.19;100.00;101382.63;5094693;28;20048;-65
2023/02/23 08:47:38;;;;;;;46.85;35.42;;;;;;;8.20;100.00;101386.97;5093084;28;20044;-65
2023/02/23 08:50:09;;;;;;;49.13;35.80;;;;;;;8.22;100.00;101395.69;5092134;28;20507;-65
2023/02/23 08:52:38;;;;;;;43.97;29.45;;;;;;;8.31;100.00;101394.28;5096422;28;20380;-66
2023/02/23 08:55:06;;;;;;;40.08;29.27;;;;;;;8.41;100.00;101399.13;5112597;28;20044;-66
2023/02/23 08:57:34;;;;;;;39.92;28.98;;;;;;;8.55;100.00;101405.13;5114308;28;20118;-64
2023/02/23 09:00:12;;;;;;;38.40;27.83;;;;;;;8.66;100.00;101404.25;5114067;28;20058;-65
2023/02/23 09:02:41;;;;;;;40.35;29.30;;;;;;;8.73;100.00;101396.78;5111206;28;20074;-67
2023/02/23 09:05:09;;;;;;;46.13;34.15;;;;;;;8.72;100.00;101397.88;5112524;28;20067;-66
2023/02/23 09:07:38;;;;;;;42.85;32.33;;;;;;;8.66;100.00;101398.81;5113993;28;20201;-66
2023/02/23 09:10:07;;;;;;;43.13;32.97;;;;;;;8.61;100.00;101398.72;5105376;28;20068;-65
2023/02/23 09:12:34;;;;;;;45.83;32.85;;;;;;;8.57;100.00;101405.72;5088625;28;20068;-66
2023/02/23 09:15:02;;;;;;;45.15;32.90;;;;;;;8.52;100.00;101415.41;5106831;28;20483;-65
2023/02/23 09:17:30;;;;;;;45.95;33.85;;;;;;;8.49;100.00;101415.88;5110854;28;20126;-66
2023/02/23 09:19:57;;;;;;;46.75;34.53;;;;;;;8.49;100.00;101429.47;5113326;28;20039;-67
2023/02/23 09:22:25;;;;;;;47.83;33.65;;;;;;;8.46;100.00;101427.22;5110989;28;20048;-67
2023/02/23 09:24:53;;;;;;;41.85;31.95;;;;;;;8.46;100.00;101434.53;5113701;27;20498;-67
2023/02/23 09:27:20;;;;;;;49.67;36.38;;;;;;;8.44;100.00;101433.94;5113929;28;20066;-67
2023/02/23 09:29:48;;;;;;;46.75;35.15;;;;;;;8.39;100.00;101437.34;5112580;28;20043;-68
2023/02/23 09:32:15;;;;;;;47.30;34.72;;;;;;;8.37;100.00;101436.78;5112213;28;20054;-69
2023/02/23 09:34:43;;;;;;;50.67;35.67;;;;;;;8.38;100.00;101434.88;5096252;28;20478;-68
2023/02/23 09:37:11;;;;;;;46.75;35.67;;;;;;;8.39;100.00;101434.63;5111994;28;20100;-70
2023/02/23 09:39:39;;;;;;;50.42;36.67;;;;;;;8.38;100.00;101435.69;5112597;28;20130;-68
2023/02/23 09:42:38;;;;;;;50.75;36.42;;;;;;;8.36;100.00;101443.25;5109588;28;20049;-68
2023/02/23 09:45:14;;;;;;;48.65;36.15;;;;;;;8.32;100.00;101442.06;5076749;28;20048;-68
2023/02/23 09:48:08;;;;;;;52.72;37.58;;;;;;;8.30;100.00;101444.22;5093049;28;20488;-68
2023/02/23 09:50:38;;;;;;;52.85;37.83;;;;;;;8.28;100.00;101440.91;5092635;28;20123;-68
2023/02/23 09:53:31;;;;;;;52.53;37.33;;;;;;;8.27;100.00;101450.09;5092747;28;20048;-68
2023/02/23 09:56:04;;;;;;;51.92;38.50;;;;;;;8.26;100.00;101449.28;5092072;28;20055;-68
2023/02/23 09:58:34;;;;;;;52.25;38.38;;;;;;;8.27;100.00;101452.81;5112057;28;20047;-68
2023/02/23 10:01:17;;;;;;;52.80;38.45;;;;;;;8.32;100.00;101455.66;5114035;28;20126;-68
2023/02/23 10:03:59;;;;;;;56.80;39.17;;;;;;;8.31;100.00;101456.72;5112070;28;20130;-68
2023/02/23 10:06:28;;;;;;;49.40;36.85;;;;;;;8.32;100.00;101464.63;5116167;28;20064;-68
2023/02/23 10:09:21;;;;;;;52.00;39.60;;;;;;;8.32;100.00;101461.06;5112719;27;20074;-67
2023/02/23 10:12:20;;;;;;;51.67;37.03;;;;;;;8.35;100.00;101449.75;5114952;27;20050;-68
2023/02/23 10:15:14;;;;;;;50.88;37.92;;;;;;;8.36;100.00;101448.69;5086997;28;20427;-67
2023/02/23 10:18:08;;;;;;;50.67;37.95;;;;;;;8.39;100.00;101453.63;5098805;28;20050;-66
2023/02/23 10:20:50;;;;;;;52.47;37.13;;;;;;;8.41;100.00;101456.97;5098409;28;20062;-68
2023/02/23 10:23:39;;;;;;;49.92;37.03;;;;;;;8.43;100.00;101454.84;5097813;28;20380;-68
2023/02/23 10:26:07;;;;;;;51.05;37.72;;;;;;;8.43;100.00;101448.59;5099661;28;20127;-69
2023/02/23 10:28:36;;;;;;;54.63;39.13;;;;;;;8.43;100.00;101443.16;5100055;27;20048;-67
2023/02/23 10:31:25;;;;;;;53.63;39.50;;;;;;;8.44;100.00;101445.66;5103661;28;20055;-67
2023/02/23 10:33:56;;;;;;;55.15;39.17;;;;;;;8.47;100.00;101447.06;5098582;28;20460;-66
2023/02/23 10:36:35;;;;;;;56.63;40.58;;;;;;;8.49;100.00;101459.34;5098163;28;20055;-66
2023/02/23 10:39:07;;;;;;;56.25;40.50;;;;;;;8.50;100.00;101465.59;5107885;27;20054;-66
2023/02/23 10:41:36;;;;;;;60.55;42.75;;;;;;;8.50;100.00;101460.97;5111543;28;20036;-65
2023/02/23 10:44:05;;;;;;;56.72;43.25;;;;;;;8.47;100.00;101461.47;5095660;27;20125;-67
2023/02/23 10:46:43;;;;;;;58.25;43.33;;;;;;;8.44;100.00;101472.81;5102375;27;20060;-68
2023/02/23 10:49:21;;;;;;;59.40;44.25;;;;;;;8.44;100.00;101472.81;5146584;27;20047;-72
2023/02/23 10:51:56;;;;;;;58.00;43.75;;;;;;;8.44;100.00;101471.97;5110697;27;20096;-68
2023/02/23 10:54:43;;;;;;;58.72;44.65;;;;;;;8.41;100.00;101467.84;5112037;28;20047;-68
2023/02/23 10:57:21;;;;;;;56.80;43.17;;;;;;;8.43;100.00;101471.13;5119518;28;20082;-65
2023/02/23 11:00:25;;;;;;;59.55;44.58;;;;;;;8.44;100.00;101472.81;5105783;28;20052;-65
2023/02/23 11:02:57;;;;;;;54.72;41.03;;;;;;;8.47;100.00;101471.50;5104659;27;20044;-65
2023/02/23 11:05:57;;;;;;;63.38;45.20;;;;;;;8.49;100.00;101481.06;5117477;27;20093;-67
2023/02/23 11:08:33;;;;;;;60.95;47.35;;;;;;;8.50;100.00;101485.41;5041269;28;20048;-68
2023/02/23 11:11:02;;;;;;;61.45;42.60;;;;;;;8.49;100.00;101480.22;5091385;28;20036;-66
2023/02/23 11:13:45;;;;;;;60.60;46.95;;;;;;;8.47;100.00;101480.47;5098484;27;20122;-67
2023/02/23 11:16:22;;;;;;;62.30;47.58;;;;;;;8.47;100.00;101477.75;5094691;28;20232;-67
2023/02/23 11:18:53;;;;;;;61.53;46.53;;;;;;;8.45;100.00;101473.63;5100437;27;20530;-68
2023/02/23 11:21:24;;;;;;;61.55;41.83;;;;;;;8.45;100.00;101477.16;5117170;28;20563;-67
2023/02/23 11:23:57;;;;;;;59.55;42.92;;;;;;;8.51;100.00;101476.22;5120368;28;20044;-68
2023/02/23 11:26:32;;;;;;;56.05;41.88;;;;;;;8.57;100.00;101476.34;5098844;28;20040;-66
2023/02/23 11:29:15;;;;;;;56.42;39.42;;;;;;;8.60;100.00;101464.97;5099649;27;20095;-67
2023/02/23 11:31:50;;;;;;;59.63;41.03;;;;;;;8.65;100.00;101474.06;5100333;28;20040;-66
2023/02/23 11:34:27;;;;;;;53.47;37.75;;;;;;;8.64;100.00;101461.56;5100820;27;20044;-67
2023/02/23 11:37:04;;;;;;;56.83;38.22;;;;;;;8.66;100.00;101458.56;5116106;27;20395;-66
2023/02/23 11:39:32;;;;;;;51.55;37.08;;;;;;;8.69;100.00;101464.38;5100045;28;20047;-66
2023/02/23 11:42:19;;;;;;;48.92;36.05;;;;;;;8.69;100.00;101458.13;5109340;27;20047;-68
2023/02/23 11:45:18;;;;;;;48.03;35.30;;;;;;;8.69;100.00;101458.13;5093333;27;20048;-66
2023/02/23 11:47:48;;;;;;;45.17;32.78;;;;;;;8.67;100.00;101460.25;5095944;27;20064;-69
2023/02/23 11:50:34;;;;;;;45.10;33.22;;;;;;;8.66;100.00;101458.56;5102848;27;20044;-67
2023/02/23 11:53:16;;;;;;;45.53;33.70;;;;;;;8.67;100.00;101466.50;5100456;27;20118;-66
2023/02/23 11:55:50;;;;;;;49.20;34.08;;;;;;;8.67;100.00;101471.13;5114403;27;20562;-66
2023/02/23 11:58:36;;;;;;;50.13;36.30;;;;;;;8.68;100.00;101476.31;5107373;27;20093;-67
2023/02/23 12:01:15;;;;;;;46.53;34.05;;;;;;;8.67;100.00;101476.53;5098880;27;20048;-66
2023/02/23 12:03:55;;;;;;;49.80;34.92;;;;;;;8.65;100.00;101468.63;5093994;28;20085;-66
2023/02/23 12:06:31;;;;;;;46.22;33.35;;;;;;;8.67;100.00;101465.69;5097285;27;20457;-68
2023/02/23 12:09:28;;;;;;;45.05;33.60;;;;;;;8.68;100.00;101468.16;5094748;27;20397;-67
2023/02/23 12:12:05;;;;;;;;;;;;;;;8.69;100.00;101460.84;5097148;27;20050;-68
2023/02/23 12:14:40;;;;;;;42.03;32.25;;;;;;;8.71;100.00;101458.72;5085699;28;19919;-67
2023/02/23 12:17:17;;;;;;;43.97;32.35;;;;;;;8.72;100.00;101457.63;5087524;27;20040;-67
2023/02/23 12:19:58;;;;;;;45.13;32.75;;;;;;;8.73;100.00;101456.56;5078559;28;20170;-67
2023/02/23 12:22:38;;;;;;;41.72;30.77;;;;;;;8.72;100.00;101457.63;5099521;27;20466;-68
2023/02/23 12:25:29;;;;;;;37.70;28.85;;;;;;;8.71;100.00;101454.09;5101131;27;20043;-67
2023/02/23 12:28:04;;;;;;;39.83;30.08;;;;;;;8.73;100.00;101445.69;5093251;28;20074;-66
2023/02/23 12:30:57;;;;;;;40.58;30.75;;;;;;;8.79;100.00;101452.06;5098702;27;20032;-67
2023/02/23 12:33:36;;;;;;;41.75;31.27;;;;;;;8.77;100.00;101437.91;5093470;28;20446;-67
2023/02/23 12:36:43;;;;;;;39.22;30.27;;;;;;;8.73;100.00;101440.25;5092304;27;20031;-67
2023/02/23 12:39:30;;;;;;;39.60;29.02;;;;;;;8.69;100.00;101452.69;5019711;28;20045;-68
2023/02/23 12:42:22;;;;;;;34.60;27.10;;;;;;;8.67;100.00;101457.53;5115219;27;20047;-67
2023/02/23 12:44:56;;;;;;;37.30;25.80;;;;;;;8.64;100.00;101445.25;5100379;28;20051;-66
2023/02/23 12:47:53;;;;;;;35.85;25.05;;;;;;;8.63;100.00;101449.03;5100212;28;20495;-66
2023/02/23 12:50:49;;;;;;;27.90;20.48;;;;;;;8.68;100.00;101451.88;5097975;28;20490;-66
2023/02/23 12:53:30;;;;;;;33.30;23.10;;;;;;;8.73;100.00;101453.84;5097745;27;20048;-66
2023/02/23 12:56:10;;;;;;;31.02;23.20;;;;;;;8.76;100.00;101461.53;5094997;28;20399;-67
2023/02/23 12:58:56;;;;;;;29.05;21.20;;;;;;;8.79;100.00;101460.22;5097547;28;20050;-64